createdAt,value
2023-03-06T00:00:58.489Z,4.30
2023-03-06T00:03:27.971Z,4.30
2023-03-06T00:05:59.276Z,4.20
2023-03-06T00:08:29.031Z,4.20
2023-03-06T00:10:56.990Z,4.30
2023-03-06T00:13:26.586Z,4.30
2023-03-06T00:15:53.434Z,4.30
2023-03-06T00:18:20.224Z,4.30
2023-03-06T00:20:47.168Z,4.30
2023-03-06T00:23:15.093Z,4.30
2023-03-06T00:25:44.104Z,4.30
2023-03-06T00:28:12.337Z,4.20
2023-03-06T00:30:39.437Z,4.30
2023-03-06T00:33:06.348Z,4.30
2023-03-06T00:35:33.201Z,4.30
2023-03-06T00:38:00.205Z,4.30
2023-03-06T00:40:27.520Z,4.30
2023-03-06T00:42:54.458Z,4.30
2023-03-06T00:45:21.369Z,4.30
2023-03-06T00:47:48.141Z,4.40
2023-03-06T00:50:15.089Z,4.30
2023-03-06T00:52:42.132Z,4.30
2023-03-06T00:55:10.444Z,4.30
2023-03-06T00:57:37.372Z,4.30
2023-03-06T01:00:06.443Z,4.30
2023-03-06T01:02:33.344Z,4.40
2023-03-06T01:05:00.470Z,4.30
2023-03-06T01:07:27.831Z,4.30
2023-03-06T01:09:54.725Z,4.40
2023-03-06T01:12:23.501Z,4.40
2023-03-06T01:14:51.366Z,4.30
2023-03-06T01:17:18.321Z,4.30
2023-03-06T01:19:45.131Z,4.40
2023-03-06T01:22:13.938Z,4.30
2023-03-06T01:24:40.793Z,4.30
2023-03-06T01:27:07.572Z,4.30
2023-03-06T01:29:34.478Z,4.30
2023-03-06T01:32:01.443Z,4.20
2023-03-06T01:34:28.299Z,4.10
2023-03-06T01:36:55.235Z,4.10
2023-03-06T01:39:22.005Z,4.10
2023-03-06T01:41:48.920Z,4.10
2023-03-06T01:44:16.313Z,4.10
2023-03-06T01:46:45.083Z,4.10
2023-03-06T01:49:25.222Z,4.10
2023-03-06T01:52:03.468Z,4.00
2023-03-06T01:54:43.123Z,4.00
2023-03-06T01:57:17.321Z,4.00
2023-03-06T01:59:46.739Z,4.00
2023-03-06T02:02:15.355Z,3.90
2023-03-06T02:04:44.030Z,3.90
2023-03-06T02:07:11.773Z,4.00
2023-03-06T02:09:39.194Z,3.90
2023-03-06T02:12:14.418Z,3.90
2023-03-06T02:14:42.508Z,3.80
2023-03-06T02:17:14.099Z,3.80
2023-03-06T02:20:03.033Z,3.70
2023-03-06T02:22:57.951Z,3.80
2023-03-06T02:25:36.120Z,3.80
2023-03-06T02:28:07.756Z,3.80
2023-03-06T02:30:36.753Z,3.80
2023-03-06T02:33:04.973Z,3.70
2023-03-06T02:35:35.923Z,3.80
2023-03-06T02:38:15.856Z,3.70
2023-03-06T02:40:47.448Z,3.80
2023-03-06T02:43:21.130Z,3.80
2023-03-06T02:45:51.806Z,3.80
2023-03-06T02:48:20.798Z,3.80
2023-03-06T02:50:48.537Z,3.90
2023-03-06T02:53:18.460Z,3.90
2023-03-06T02:55:46.539Z,3.90
2023-03-06T02:58:15.518Z,3.90
2023-03-06T03:00:42.665Z,3.90
2023-03-06T03:03:10.176Z,4.00
2023-03-06T03:05:37.046Z,4.00
2023-03-06T03:08:11.666Z,4.10
2023-03-06T03:10:38.628Z,4.10
2023-03-06T03:13:06.236Z,4.10
2023-03-06T03:15:34.630Z,4.20
2023-03-06T03:18:01.495Z,4.10
2023-03-06T03:20:28.271Z,4.20
2023-03-06T03:22:56.463Z,4.20
2023-03-06T03:25:26.088Z,4.20
2023-03-06T03:27:55.625Z,4.20
2023-03-06T03:30:22.893Z,4.30
2023-03-06T03:32:50.465Z,4.30
2023-03-06T03:35:17.589Z,4.30
2023-03-06T03:37:44.634Z,4.30
2023-03-06T03:40:12.939Z,4.30
2023-03-06T03:42:39.803Z,4.30
2023-03-06T03:45:08.331Z,4.30
2023-03-06T03:47:35.226Z,4.40
2023-03-06T03:50:02.856Z,4.30
2023-03-06T03:52:29.955Z,4.30
2023-03-06T03:54:56.999Z,4.40
2023-03-06T03:57:24.733Z,4.30
2023-03-06T03:59:53.702Z,4.40
2023-03-06T04:02:40.584Z,4.40
2023-03-06T04:05:18.699Z,4.40
2023-03-06T04:07:46.763Z,4.40
2023-03-06T04:10:14.935Z,4.30
2023-03-06T04:12:42.316Z,4.40
2023-03-06T04:15:11.572Z,4.40
2023-03-06T04:17:39.280Z,4.40
2023-03-06T04:20:10.758Z,4.40
2023-03-06T04:22:38.156Z,4.40
2023-03-06T04:25:05.708Z,4.40
2023-03-06T04:27:32.708Z,4.40
2023-03-06T04:29:59.913Z,4.40
2023-03-06T04:32:27.057Z,4.50
2023-03-06T04:34:54.107Z,4.50
2023-03-06T04:37:25.312Z,4.40
2023-03-06T04:39:53.580Z,4.40
2023-03-06T04:42:20.722Z,4.50
2023-03-06T04:44:47.771Z,4.60
2023-03-06T04:47:14.832Z,4.50
2023-03-06T04:49:41.633Z,4.40
2023-03-06T04:52:08.817Z,4.40
2023-03-06T04:54:35.635Z,4.40
2023-03-06T04:57:02.466Z,4.30
2023-03-06T04:59:29.545Z,4.30
2023-03-06T05:01:56.561Z,4.30
2023-03-06T05:04:23.425Z,4.40
2023-03-06T05:06:50.260Z,4.40
2023-03-06T05:09:17.059Z,4.40
2023-03-06T05:11:43.878Z,4.40
2023-03-06T05:14:10.706Z,4.30
2023-03-06T05:16:37.610Z,4.30
2023-03-06T05:19:04.488Z,4.40
2023-03-06T05:21:31.316Z,4.40
2023-03-06T05:23:58.146Z,4.30
2023-03-06T05:26:25.120Z,4.40
2023-03-06T05:28:52.005Z,4.40
2023-03-06T05:31:18.832Z,4.40
2023-03-06T05:33:45.671Z,4.50
2023-03-06T05:36:12.522Z,4.50
2023-03-06T05:38:39.358Z,4.40
2023-03-06T05:41:06.166Z,4.40
2023-03-06T05:43:33.007Z,4.40
2023-03-06T05:46:05.786Z,4.40
2023-03-06T05:48:34.088Z,4.30
2023-03-06T05:51:02.240Z,4.30
2023-03-06T05:53:29.680Z,4.40
2023-03-06T05:56:03.804Z,4.30
2023-03-06T05:58:32.477Z,4.30
2023-03-06T06:00:59.910Z,4.20
2023-03-06T06:03:27.517Z,4.20
2023-03-06T06:05:54.345Z,4.20
2023-03-06T06:08:21.788Z,4.20
2023-03-06T06:10:50.444Z,4.20
2023-03-06T06:13:19.034Z,4.20
2023-03-06T06:15:45.880Z,4.10
2023-03-06T06:18:12.749Z,4.10
2023-03-06T06:20:39.629Z,4.10
2023-03-06T06:23:06.581Z,4.10
2023-03-06T06:25:33.881Z,4.10
2023-03-06T06:28:00.817Z,4.10
2023-03-06T06:30:27.634Z,4.10
2023-03-06T06:32:54.573Z,4.10
2023-03-06T06:35:21.648Z,4.10
2023-03-06T06:37:49.073Z,4.10
2023-03-06T06:40:16.050Z,4.20
2023-03-06T06:42:43.481Z,4.20
2023-03-06T06:45:11.291Z,4.20
2023-03-06T06:47:41.249Z,4.20
2023-03-06T06:50:13.028Z,4.30
2023-03-06T06:52:40.353Z,4.40
2023-03-06T06:55:08.737Z,4.40
2023-03-06T06:57:35.554Z,4.40
2023-03-06T07:00:03.104Z,4.40
2023-03-06T07:02:30.105Z,4.40
2023-03-06T07:05:04.325Z,4.40
2023-03-06T07:07:37.557Z,4.50
2023-03-06T07:10:12.022Z,4.50
2023-03-06T07:12:38.939Z,4.50
2023-03-06T07:15:07.981Z,4.50
2023-03-06T07:17:34.860Z,4.60
2023-03-06T07:20:01.884Z,4.60
2023-03-06T07:22:31.929Z,4.70
2023-03-06T07:25:05.382Z,4.70
2023-03-06T07:27:32.474Z,4.70
2023-03-06T07:29:59.429Z,4.70
2023-03-06T07:32:26.486Z,4.60
2023-03-06T07:34:58.390Z,4.70
2023-03-06T07:37:33.001Z,4.70
2023-03-06T07:40:00.056Z,4.80
2023-03-06T07:42:29.130Z,4.80
2023-03-06T07:45:01.116Z,4.80
2023-03-06T07:47:27.922Z,4.80
2023-03-06T07:49:56.740Z,4.90
2023-03-06T07:52:24.243Z,4.90
2023-03-06T07:54:51.079Z,5.00
2023-03-06T07:57:17.835Z,5.00
2023-03-06T07:59:44.650Z,5.00
2023-03-06T08:02:12.285Z,5.10
2023-03-06T08:04:39.061Z,5.20
2023-03-06T08:07:05.846Z,5.20
2023-03-06T08:09:34.814Z,5.20
2023-03-06T08:12:02.222Z,5.20
2023-03-06T08:14:29.254Z,5.20
2023-03-06T08:16:56.327Z,5.30
2023-03-06T08:19:23.219Z,5.30
2023-03-06T08:21:50.010Z,5.30
2023-03-06T08:24:18.463Z,5.30
2023-03-06T08:26:45.893Z,5.30
2023-03-06T08:29:13.554Z,5.40
2023-03-06T08:31:44.020Z,5.40
2023-03-06T08:34:15.952Z,5.40
2023-03-06T08:36:42.839Z,5.50
2023-03-06T08:39:10.087Z,5.60
2023-03-06T08:41:37.796Z,5.50
2023-03-06T08:44:05.319Z,5.50
2023-03-06T08:46:33.892Z,5.60
2023-03-06T08:49:01.181Z,5.60
2023-03-06T08:51:29.017Z,5.50
2023-03-06T08:53:57.866Z,5.60
2023-03-06T08:56:32.649Z,5.60
2023-03-06T08:59:02.106Z,5.70
2023-03-06T09:01:33.204Z,5.70
2023-03-06T09:04:04.319Z,5.70
2023-03-06T09:06:35.707Z,5.70
2023-03-06T09:09:03.751Z,5.80
2023-03-06T09:11:31.450Z,5.90
2023-03-06T09:13:59.315Z,5.90
2023-03-06T09:16:26.808Z,5.90
2023-03-06T09:18:54.235Z,6.00
2023-03-06T09:21:23.081Z,6.00
2023-03-06T09:23:50.432Z,5.90
2023-03-06T09:26:18.531Z,5.90
2023-03-06T09:28:45.748Z,6.00
2023-03-06T09:31:18.043Z,6.00
2023-03-06T09:33:45.703Z,6.00
2023-03-06T09:36:22.889Z,6.20
2023-03-06T09:38:50.731Z,6.30
2023-03-06T09:41:34.092Z,6.40
2023-03-06T09:44:08.670Z,6.40
2023-03-06T09:47:02.180Z,6.50
2023-03-06T09:50:13.608Z,6.50
2023-03-06T09:53:11.773Z,6.40
2023-03-06T09:55:41.178Z,6.70
2023-03-06T09:58:14.438Z,6.70
2023-03-06T10:01:02.667Z,6.80
2023-03-06T10:03:57.832Z,6.90
2023-03-06T10:06:33.041Z,7.10
2023-03-06T10:09:14.992Z,7.40
2023-03-06T10:11:51.477Z,7.40
2023-03-06T10:14:47.698Z,7.40
2023-03-06T10:17:23.550Z,7.60
2023-03-06T10:19:51.161Z,7.60
2023-03-06T10:22:38.248Z,7.60
2023-03-06T10:25:30.116Z,7.70
2023-03-06T10:28:34.468Z,7.80
2023-03-06T10:31:41.020Z,7.90
2023-03-06T10:34:24.124Z,7.80
2023-03-06T10:36:51.303Z,7.90
2023-03-06T10:39:22.159Z,7.90
2023-03-06T10:41:50.091Z,8.00
2023-03-06T10:44:20.326Z,7.90
2023-03-06T10:46:51.670Z,8.00
2023-03-06T10:49:36.009Z,7.90
2023-03-06T10:52:14.803Z,8.00
2023-03-06T10:54:44.171Z,7.80
2023-03-06T10:57:31.803Z,7.90
2023-03-06T11:00:04.868Z,7.80
2023-03-06T11:02:40.990Z,8.00
2023-03-06T11:05:20.794Z,8.30
2023-03-06T11:07:59.100Z,8.40
2023-03-06T11:10:27.247Z,8.40
2023-03-06T11:13:04.607Z,8.50
2023-03-06T11:15:32.037Z,8.30
2023-03-06T11:18:28.504Z,8.50
2023-03-06T11:20:56.801Z,8.50
2023-03-06T11:23:36.831Z,8.50
2023-03-06T11:26:29.773Z,8.60
2023-03-06T11:29:49.301Z,8.60
2023-03-06T11:32:23.678Z,8.60
2023-03-06T11:35:02.535Z,8.40
2023-03-06T11:37:32.549Z,8.70
2023-03-06T11:40:17.517Z,8.70
2023-03-06T11:43:06.300Z,8.70
2023-03-06T11:45:38.171Z,8.50
2023-03-06T11:48:13.611Z,8.50
2023-03-06T11:50:52.480Z,8.30
2023-03-06T11:53:32.139Z,8.50
2023-03-06T11:56:45.684Z,8.70
2023-03-06T11:59:30.520Z,8.60
2023-03-06T12:02:31.092Z,8.50
2023-03-06T12:05:35.967Z,8.80
2023-03-06T12:08:55.034Z,9.00
2023-03-06T12:11:57.493Z,8.90
2023-03-06T12:15:16.265Z,9.10
2023-03-06T12:18:13.348Z,9.00
2023-03-06T12:21:15.360Z,9.00
2023-03-06T12:24:23.183Z,9.10
2023-03-06T12:27:10.821Z,9.20
2023-03-06T12:29:40.522Z,9.00
2023-03-06T12:32:53.901Z,9.00
2023-03-06T12:36:01.144Z,9.00
2023-03-06T12:38:39.723Z,9.10
2023-03-06T12:41:43.460Z,9.10
2023-03-06T12:44:55.792Z,9.20
2023-03-06T12:47:30.704Z,9.10
2023-03-06T12:50:13.415Z,8.90
2023-03-06T12:52:41.907Z,8.90
2023-03-06T12:55:20.372Z,8.90
2023-03-06T12:57:49.467Z,9.00
2023-03-06T13:00:34.238Z,9.00
2023-03-06T13:03:22.230Z,8.90
2023-03-06T13:06:24.489Z,8.80
2023-03-06T13:09:37.125Z,8.90
2023-03-06T13:12:19.442Z,8.80
2023-03-06T13:14:54.208Z,8.90
2023-03-06T13:17:24.273Z,8.80
2023-03-06T13:20:16.190Z,8.90
2023-03-06T13:22:46.162Z,9.00
2023-03-06T13:25:19.152Z,9.00
2023-03-06T13:27:52.124Z,8.80
2023-03-06T13:30:45.796Z,8.80
2023-03-06T13:33:37.033Z,8.90
2023-03-06T13:36:39.388Z,9.00
2023-03-06T13:39:10.012Z,8.90
2023-03-06T13:41:54.828Z,9.00
2023-03-06T13:44:24.676Z,9.00
2023-03-06T13:47:06.186Z,9.00
2023-03-06T13:49:34.997Z,9.10
2023-03-06T13:52:43.237Z,8.90
2023-03-06T13:55:37.962Z,8.90
2023-03-06T13:58:36.491Z,8.80
2023-03-06T14:01:22.908Z,8.80
2023-03-06T14:04:10.743Z,8.80
2023-03-06T14:06:38.328Z,8.70
2023-03-06T14:09:15.774Z,8.80
2023-03-06T14:11:54.929Z,8.90
2023-03-06T14:14:44.651Z,8.90
2023-03-06T14:17:25.513Z,9.00
2023-03-06T14:19:52.437Z,8.90
2023-03-06T14:22:23.957Z,9.00
2023-03-06T14:25:15.038Z,9.00
2023-03-06T14:27:52.590Z,9.00
2023-03-06T14:30:25.236Z,9.00
2023-03-06T14:32:55.063Z,9.00
2023-03-06T14:35:29.568Z,9.00
2023-03-06T14:38:04.058Z,8.80
2023-03-06T14:40:42.581Z,8.80
2023-03-06T14:43:29.297Z,8.80
2023-03-06T14:46:06.435Z,8.70
2023-03-06T14:48:45.899Z,8.60
2023-03-06T14:51:21.138Z,8.70
2023-03-06T14:53:53.783Z,8.80
2023-03-06T14:56:25.486Z,8.60
2023-03-06T14:58:57.726Z,8.40
2023-03-06T15:01:35.707Z,8.30
2023-03-06T15:04:22.401Z,8.50
2023-03-06T15:06:49.944Z,8.50
2023-03-06T15:09:30.160Z,8.30
2023-03-06T15:12:02.438Z,8.50
2023-03-06T15:14:33.976Z,8.30
2023-03-06T15:17:21.643Z,8.20
2023-03-06T15:20:00.557Z,8.10
2023-03-06T15:22:41.360Z,8.00
2023-03-06T15:25:30.754Z,8.00
2023-03-06T15:28:04.406Z,8.20
2023-03-06T15:30:33.709Z,8.30
2023-03-06T15:33:24.973Z,8.30
2023-03-06T15:36:04.417Z,8.30
2023-03-06T15:38:43.110Z,8.50
2023-03-06T15:41:34.079Z,8.40
2023-03-06T15:44:10.831Z,8.40
2023-03-06T15:46:37.858Z,8.30
2023-03-06T15:49:04.817Z,8.00
2023-03-06T15:51:32.775Z,8.00
2023-03-06T15:54:11.316Z,8.00
2023-03-06T15:56:45.961Z,8.00
2023-03-06T15:59:27.503Z,7.90
2023-03-06T16:01:54.597Z,7.90
2023-03-06T16:04:21.539Z,7.90
2023-03-06T16:06:48.762Z,7.80
2023-03-06T16:09:15.608Z,7.90
2023-03-06T16:11:44.781Z,7.80
2023-03-06T16:14:23.665Z,7.80
2023-03-06T16:16:54.098Z,8.00
2023-03-06T16:19:26.771Z,7.70
2023-03-06T16:21:57.568Z,7.60
2023-03-06T16:24:26.034Z,7.40
2023-03-06T16:26:55.018Z,7.50
2023-03-06T16:29:27.124Z,7.60
2023-03-06T16:31:57.277Z,7.20
2023-03-06T16:34:24.492Z,7.20
2023-03-06T16:36:51.598Z,7.20
2023-03-06T16:39:21.949Z,7.10
2023-03-06T16:41:52.190Z,6.90
2023-03-06T16:44:20.612Z,6.80
2023-03-06T16:46:50.019Z,6.80
2023-03-06T16:49:24.020Z,6.90
2023-03-06T16:51:52.362Z,6.90
2023-03-06T16:54:20.247Z,7.10
2023-03-06T16:56:47.200Z,6.90
2023-03-06T16:59:14.102Z,6.80
2023-03-06T17:01:45.369Z,6.70
2023-03-06T17:04:12.595Z,6.70
2023-03-06T17:06:39.896Z,6.60
2023-03-06T17:09:07.037Z,6.60
2023-03-06T17:11:38.633Z,6.60
2023-03-06T17:14:06.777Z,6.60
2023-03-06T17:16:33.771Z,6.60
2023-03-06T17:19:02.270Z,6.70
2023-03-06T17:21:30.182Z,6.70
2023-03-06T17:23:57.177Z,6.70
2023-03-06T17:26:24.185Z,6.80
2023-03-06T17:28:51.096Z,6.70
2023-03-06T17:31:22.639Z,7.00
2023-03-06T17:33:51.429Z,6.80
2023-03-06T17:36:19.222Z,6.60
2023-03-06T17:38:46.471Z,6.70
2023-03-06T17:41:13.444Z,6.80
2023-03-06T17:43:41.626Z,6.70
2023-03-06T17:46:13.331Z,6.80
2023-03-06T17:48:40.457Z,6.80
2023-03-06T17:51:08.222Z,6.70
2023-03-06T17:53:35.913Z,6.80
2023-03-06T17:56:08.919Z,6.70
2023-03-06T17:58:36.083Z,6.60
2023-03-06T18:01:14.225Z,6.60
2023-03-06T18:03:45.829Z,6.60
2023-03-06T18:06:13.538Z,6.50
2023-03-06T18:08:40.965Z,6.50
2023-03-06T18:11:09.750Z,6.60
2023-03-06T18:13:41.196Z,6.70
2023-03-06T18:16:10.256Z,6.80
2023-03-06T18:18:37.283Z,6.60
2023-03-06T18:21:11.603Z,6.50
2023-03-06T18:23:40.465Z,6.40
2023-03-06T18:26:17.186Z,6.20
2023-03-06T18:28:47.706Z,6.10
2023-03-06T18:31:42.252Z,6.20
2023-03-06T18:34:13.788Z,6.20
2023-03-06T18:36:46.930Z,6.00
2023-03-06T18:39:15.818Z,6.00
2023-03-06T18:41:42.938Z,6.10
2023-03-06T18:44:15.302Z,6.20
2023-03-06T18:46:42.144Z,5.90
2023-03-06T18:49:10.254Z,5.80
2023-03-06T18:51:37.293Z,5.80
2023-03-06T18:54:05.977Z,5.70
2023-03-06T18:56:33.606Z,5.80
2023-03-06T18:59:06.443Z,5.70
2023-03-06T19:01:34.068Z,5.60
2023-03-06T19:04:03.741Z,5.60
2023-03-06T19:06:31.330Z,5.50
2023-03-06T19:08:58.743Z,5.70
2023-03-06T19:11:26.779Z,5.70
2023-03-06T19:13:54.498Z,5.50
2023-03-06T19:16:31.287Z,5.60
2023-03-06T19:18:59.334Z,5.50
2023-03-06T19:21:28.220Z,5.50
2023-03-06T19:23:56.322Z,5.50
2023-03-06T19:26:23.470Z,5.50
2023-03-06T19:28:52.269Z,5.50
2023-03-06T19:31:24.876Z,5.50
2023-03-06T19:33:53.626Z,5.50
2023-03-06T19:36:27.592Z,5.50
2023-03-06T19:39:01.410Z,5.60
2023-03-06T19:41:28.897Z,5.60
2023-03-06T19:44:03.101Z,5.60
2023-03-06T19:46:31.585Z,5.60
2023-03-06T19:49:11.498Z,5.60
2023-03-06T19:51:38.500Z,5.70
2023-03-06T19:54:05.803Z,5.60
2023-03-06T19:56:33.564Z,5.60
2023-03-06T19:59:00.581Z,5.70
2023-03-06T20:01:28.497Z,5.70
2023-03-06T20:03:59.643Z,5.60
2023-03-06T20:06:33.522Z,5.60
2023-03-06T20:09:08.307Z,5.60
2023-03-06T20:11:35.519Z,5.70
2023-03-06T20:14:05.050Z,5.70
2023-03-06T20:16:33.355Z,5.70
2023-03-06T20:19:01.730Z,5.80
2023-03-06T20:21:32.032Z,5.80
2023-03-06T20:23:59.645Z,5.80
2023-03-06T20:26:29.234Z,5.90
2023-03-06T20:28:57.890Z,5.80
2023-03-06T20:31:28.027Z,5.90
2023-03-06T20:33:58.016Z,6.00
2023-03-06T20:36:29.409Z,5.90
2023-03-06T20:39:00.230Z,5.90
2023-03-06T20:41:29.728Z,5.90
2023-03-06T20:44:01.001Z,6.00
2023-03-06T20:46:28.070Z,6.00
2023-03-06T20:48:56.165Z,6.00
2023-03-06T20:51:28.551Z,6.00
2023-03-06T20:53:56.327Z,5.90
2023-03-06T20:56:27.025Z,6.00
2023-03-06T20:58:54.137Z,6.00
2023-03-06T21:01:27.658Z,6.10
2023-03-06T21:03:56.844Z,6.20
2023-03-06T21:06:25.632Z,6.30
2023-03-06T21:08:52.538Z,6.20
2023-03-06T21:11:19.670Z,6.40
2023-03-06T21:13:46.576Z,6.30
2023-03-06T21:16:20.449Z,6.20
2023-03-06T21:18:48.016Z,6.20
2023-03-06T21:21:21.553Z,6.20
2023-03-06T21:23:49.169Z,6.20
2023-03-06T21:26:22.790Z,6.20
2023-03-06T21:28:50.605Z,6.30
2023-03-06T21:31:20.718Z,6.30
2023-03-06T21:33:49.644Z,6.60
2023-03-06T21:36:18.643Z,6.80
2023-03-06T21:38:47.775Z,6.50
2023-03-06T21:41:19.275Z,6.50
2023-03-06T21:43:46.947Z,6.60
2023-03-06T21:46:13.952Z,6.60
2023-03-06T21:48:41.159Z,6.60
2023-03-06T21:51:12.785Z,6.50
2023-03-06T21:53:43.269Z,6.90
2023-03-06T21:56:12.509Z,6.60
2023-03-06T21:58:39.621Z,6.70
2023-03-06T22:01:13.017Z,6.60
2023-03-06T22:03:40.395Z,6.80
2023-03-06T22:06:13.533Z,6.60
2023-03-06T22:08:41.667Z,6.60
2023-03-06T22:11:14.779Z,6.70
2023-03-06T22:13:42.333Z,6.50
2023-03-06T22:16:09.802Z,6.60
2023-03-06T22:18:37.726Z,6.50
2023-03-06T22:21:12.913Z,6.40
2023-03-06T22:23:43.218Z,6.50
2023-03-06T22:26:13.652Z,6.50
2023-03-06T22:28:41.974Z,6.40
2023-03-06T22:31:13.753Z,6.40
2023-03-06T22:33:40.955Z,6.40
2023-03-06T22:36:12.909Z,6.40
2023-03-06T22:38:43.175Z,6.30
2023-03-06T22:41:11.694Z,6.40
2023-03-06T22:43:38.978Z,6.30
2023-03-06T22:46:13.664Z,6.30
2023-03-06T22:48:41.098Z,6.30
2023-03-06T22:51:18.286Z,6.10
2023-03-06T22:53:46.756Z,6.20
2023-03-06T22:56:18.956Z,6.20
2023-03-06T22:58:46.761Z,6.30
2023-03-06T23:01:20.512Z,6.40
2023-03-06T23:03:50.338Z,6.30
2023-03-06T23:06:24.940Z,6.30
2023-03-06T23:09:29.375Z,6.30
2023-03-06T23:12:14.986Z,6.30
2023-03-06T23:15:00.388Z,6.30
2023-03-06T23:17:46.143Z,6.30
2023-03-06T23:20:32.026Z,6.20
2023-03-06T23:23:17.500Z,6.30
2023-03-06T23:25:44.499Z,6.30
2023-03-06T23:28:12.468Z,6.30
2023-03-06T23:30:40.800Z,6.30
2023-03-06T23:33:08.529Z,6.30
2023-03-06T23:35:37.721Z,6.40
2023-03-06T23:38:04.972Z,6.60
2023-03-06T23:40:34.437Z,6.50
2023-03-06T23:43:01.339Z,6.40
2023-03-06T23:45:28.287Z,6.40
2023-03-06T23:47:55.668Z,6.40
2023-03-06T23:50:24.176Z,6.40
2023-03-06T23:52:55.448Z,6.40
2023-03-06T23:55:22.594Z,6.40
2023-03-06T23:57:49.384Z,6.30
